sensor_id;sensor_type;location;lat;lon;timestamp;P1;durP1;ratioP1;P2;durP2;ratioP2
76576;SDS011;65441;44.748;37.600;2024-01-06T00:02:15;3.08;;;0.88;;
76576;SDS011;65441;44.748;37.600;2024-01-06T00:04:45;2.13;;;0.80;;
76576;SDS011;65441;44.748;37.600;2024-01-06T00:07:13;4.45;;;0.90;;
76576;SDS011;65441;44.748;37.600;2024-01-06T00:09:42;3.40;;;0.77;;
76576;SDS011;65441;44.748;37.600;2024-01-06T00:12:10;3.38;;;1.00;;
76576;SDS011;65441;44.748;37.600;2024-01-06T00:14:39;2.53;;;0.98;;
76576;SDS011;65441;44.748;37.600;2024-01-06T00:17:10;5.15;;;1.20;;
76576;SDS011;65441;44.748;37.600;2024-01-06T00:19:38;2.75;;;0.77;;
76576;SDS011;65441;44.748;37.600;2024-01-06T00:22:07;3.50;;;0.93;;
76576;SDS011;65441;44.748;37.600;2024-01-06T00:24:35;4.15;;;0.90;;
76576;SDS011;65441;44.748;37.600;2024-01-06T00:27:04;3.72;;;0.82;;
76576;SDS011;65441;44.748;37.600;2024-01-06T00:29:33;5.60;;;1.17;;
76576;SDS011;65441;44.748;37.600;2024-01-06T00:32:01;3.88;;;0.98;;
76576;SDS011;65441;44.748;37.600;2024-01-06T00:34:30;4.25;;;1.20;;
76576;SDS011;65441;44.748;37.600;2024-01-06T00:36:58;3.50;;;1.10;;
76576;SDS011;65441;44.748;37.600;2024-01-06T00:39:28;2.97;;;0.82;;
76576;SDS011;65441;44.748;37.600;2024-01-06T00:41:57;2.83;;;0.82;;
76576;SDS011;65441;44.748;37.600;2024-01-06T00:44:25;2.33;;;0.73;;
76576;SDS011;65441;44.748;37.600;2024-01-06T00:46:54;2.92;;;0.90;;
76576;SDS011;65441;44.748;37.600;2024-01-06T00:49:22;2.33;;;0.70;;
76576;SDS011;65441;44.748;37.600;2024-01-06T00:51:50;6.68;;;0.82;;
76576;SDS011;65441;44.748;37.600;2024-01-06T00:54:19;3.58;;;0.88;;
76576;SDS011;65441;44.748;37.600;2024-01-06T00:56:49;3.45;;;1.00;;
76576;SDS011;65441;44.748;37.600;2024-01-06T00:59:17;3.30;;;1.00;;
76576;SDS011;65441;44.748;37.600;2024-01-06T01:01:46;2.63;;;1.00;;
76576;SDS011;65441;44.748;37.600;2024-01-06T01:04:14;2.75;;;0.98;;
76576;SDS011;65441;44.748;37.600;2024-01-06T01:06:42;3.72;;;1.00;;
76576;SDS011;65441;44.748;37.600;2024-01-06T01:09:11;4.43;;;0.88;;
76576;SDS011;65441;44.748;37.600;2024-01-06T01:11:40;2.67;;;0.73;;
76576;SDS011;65441;44.748;37.600;2024-01-06T01:14:10;3.20;;;1.80;;
76576;SDS011;65441;44.748;37.600;2024-01-06T01:16:39;2.40;;;0.70;;
76576;SDS011;65441;44.748;37.600;2024-01-06T01:19:07;4.50;;;0.65;;
76576;SDS011;65441;44.748;37.600;2024-01-06T01:21:36;4.30;;;0.90;;
76576;SDS011;65441;44.748;37.600;2024-01-06T01:24:04;5.47;;;1.00;;
76576;SDS011;65441;44.748;37.600;2024-01-06T01:26:33;3.45;;;0.80;;
76576;SDS011;65441;44.748;37.600;2024-01-06T01:29:01;4.63;;;1.27;;
76576;SDS011;65441;44.748;37.600;2024-01-06T01:31:31;2.65;;;0.60;;
76576;SDS011;65441;44.748;37.600;2024-01-06T01:34:00;3.03;;;0.73;;
76576;SDS011;65441;44.748;37.600;2024-01-06T01:36:29;1.08;;;0.50;;
76576;SDS011;65441;44.748;37.600;2024-01-06T01:38:57;1.80;;;0.70;;
76576;SDS011;65441;44.748;37.600;2024-01-06T01:41:25;2.60;;;0.77;;
76576;SDS011;65441;44.748;37.600;2024-01-06T01:43:54;1.52;;;0.65;;
76576;SDS011;65441;44.748;37.600;2024-01-06T01:46:25;1.70;;;0.63;;
76576;SDS011;65441;44.748;37.600;2024-01-06T01:48:55;1.85;;;0.65;;
76576;SDS011;65441;44.748;37.600;2024-01-06T01:51:26;3.58;;;1.00;;
76576;SDS011;65441;44.748;37.600;2024-01-06T01:53:57;3.25;;;0.80;;
76576;SDS011;65441;44.748;37.600;2024-01-06T01:56:26;2.00;;;0.60;;
76576;SDS011;65441;44.748;37.600;2024-01-06T01:58:55;2.17;;;0.80;;
76576;SDS011;65441;44.748;37.600;2024-01-06T02:01:24;1.67;;;0.63;;
76576;SDS011;65441;44.748;37.600;2024-01-06T02:03:52;1.45;;;0.63;;
76576;SDS011;65441;44.748;37.600;2024-01-06T02:06:22;1.20;;;0.57;;
76576;SDS011;65441;44.748;37.600;2024-01-06T02:08:51;2.45;;;0.85;;
76576;SDS011;65441;44.748;37.600;2024-01-06T02:11:19;2.63;;;0.75;;
76576;SDS011;65441;44.748;37.600;2024-01-06T02:13:47;3.08;;;0.95;;
76576;SDS011;65441;44.748;37.600;2024-01-06T02:16:16;6.63;;;0.90;;
76576;SDS011;65441;44.748;37.600;2024-01-06T02:18:44;3.97;;;0.93;;
76576;SDS011;65441;44.748;37.600;2024-01-06T02:21:14;5.50;;;1.30;;
76576;SDS011;65441;44.748;37.600;2024-01-06T02:23:45;5.75;;;1.20;;
76576;SDS011;65441;44.748;37.600;2024-01-06T02:26:14;6.88;;;1.63;;
76576;SDS011;65441;44.748;37.600;2024-01-06T02:28:43;5.13;;;1.30;;
76576;SDS011;65441;44.748;37.600;2024-01-06T02:31:14;5.82;;;1.55;;
76576;SDS011;65441;44.748;37.600;2024-01-06T02:33:42;4.53;;;1.40;;
76576;SDS011;65441;44.748;37.600;2024-01-06T02:36:10;4.13;;;1.17;;
76576;SDS011;65441;44.748;37.600;2024-01-06T02:38:38;4.53;;;1.17;;
76576;SDS011;65441;44.748;37.600;2024-01-06T02:41:08;3.22;;;0.98;;
76576;SDS011;65441;44.748;37.600;2024-01-06T02:43:36;2.17;;;0.73;;
76576;SDS011;65441;44.748;37.600;2024-01-06T02:46:06;3.15;;;0.80;;
76576;SDS011;65441;44.748;37.600;2024-01-06T02:48:34;3.60;;;0.70;;
76576;SDS011;65441;44.748;37.600;2024-01-06T02:51:03;4.53;;;1.02;;
76576;SDS011;65441;44.748;37.600;2024-01-06T02:53:31;1.45;;;0.50;;
76576;SDS011;65441;44.748;37.600;2024-01-06T02:56:00;2.85;;;0.73;;
76576;SDS011;65441;44.748;37.600;2024-01-06T02:58:29;1.15;;;0.50;;
76576;SDS011;65441;44.748;37.600;2024-01-06T03:00:58;1.60;;;0.50;;
76576;SDS011;65441;44.748;37.600;2024-01-06T03:03:26;1.73;;;0.57;;
76576;SDS011;65441;44.748;37.600;2024-01-06T03:05:54;2.13;;;0.50;;
76576;SDS011;65441;44.748;37.600;2024-01-06T03:08:23;2.38;;;0.60;;
76576;SDS011;65441;44.748;37.600;2024-01-06T03:10:51;2.13;;;0.52;;
76576;SDS011;65441;44.748;37.600;2024-01-06T03:13:19;2.33;;;0.50;;
76576;SDS011;65441;44.748;37.600;2024-01-06T03:15:49;2.03;;;0.80;;
76576;SDS011;65441;44.748;37.600;2024-01-06T03:18:17;3.78;;;0.80;;
76576;SDS011;65441;44.748;37.600;2024-01-06T03:20:45;2.15;;;0.50;;
76576;SDS011;65441;44.748;37.600;2024-01-06T03:23:14;7.97;;;1.10;;
76576;SDS011;65441;44.748;37.600;2024-01-06T03:25:42;4.75;;;0.95;;
76576;SDS011;65441;44.748;37.600;2024-01-06T03:28:10;6.22;;;0.93;;
76576;SDS011;65441;44.748;37.600;2024-01-06T03:30:39;4.10;;;1.27;;
76576;SDS011;65441;44.748;37.600;2024-01-06T03:33:08;2.65;;;0.70;;
76576;SDS011;65441;44.748;37.600;2024-01-06T03:35:38;3.25;;;0.82;;
76576;SDS011;65441;44.748;37.600;2024-01-06T03:38:06;2.70;;;0.90;;
76576;SDS011;65441;44.748;37.600;2024-01-06T03:40:34;5.95;;;0.93;;
76576;SDS011;65441;44.748;37.600;2024-01-06T03:43:03;2.60;;;0.80;;
76576;SDS011;65441;44.748;37.600;2024-01-06T03:45:31;7.57;;;0.90;;
76576;SDS011;65441;44.748;37.600;2024-01-06T03:47:59;2.72;;;0.60;;
76576;SDS011;65441;44.748;37.600;2024-01-06T03:50:29;1.77;;;0.60;;
76576;SDS011;65441;44.748;37.600;2024-01-06T03:52:57;5.13;;;1.10;;
76576;SDS011;65441;44.748;37.600;2024-01-06T03:55:26;2.17;;;0.70;;
76576;SDS011;65441;44.748;37.600;2024-01-06T03:57:54;1.98;;;0.70;;
76576;SDS011;65441;44.748;37.600;2024-01-06T04:00:22;2.00;;;0.63;;
76576;SDS011;65441;44.748;37.600;2024-01-06T04:02:52;2.63;;;0.80;;
76576;SDS011;65441;44.748;37.600;2024-01-06T04:05:20;3.40;;;0.60;;
76576;SDS011;65441;44.748;37.600;2024-01-06T04:07:50;3.00;;;1.00;;
76576;SDS011;65441;44.748;37.600;2024-01-06T04:10:18;2.28;;;0.75;;
76576;SDS011;65441;44.748;37.600;2024-01-06T04:12:46;4.82;;;1.42;;
76576;SDS011;65441;44.748;37.600;2024-01-06T04:15:15;10.93;;;0.95;;
76576;SDS011;65441;44.748;37.600;2024-01-06T04:17:43;3.25;;;0.95;;
76576;SDS011;65441;44.748;37.600;2024-01-06T04:20:13;1.33;;;0.55;;
76576;SDS011;65441;44.748;37.600;2024-01-06T04:22:42;2.95;;;0.77;;
76576;SDS011;65441;44.748;37.600;2024-01-06T04:25:12;2.95;;;0.73;;
76576;SDS011;65441;44.748;37.600;2024-01-06T04:27:40;2.53;;;0.75;;
76576;SDS011;65441;44.748;37.600;2024-01-06T04:30:09;2.47;;;0.88;;
76576;SDS011;65441;44.748;37.600;2024-01-06T04:32:38;5.45;;;0.77;;
76576;SDS011;65441;44.748;37.600;2024-01-06T04:35:07;3.05;;;0.75;;
76576;SDS011;65441;44.748;37.600;2024-01-06T04:37:35;2.88;;;0.73;;
76576;SDS011;65441;44.748;37.600;2024-01-06T04:40:04;3.60;;;0.82;;
76576;SDS011;65441;44.748;37.600;2024-01-06T04:42:35;1.08;;;0.50;;
76576;SDS011;65441;44.748;37.600;2024-01-06T04:45:03;2.63;;;0.63;;
76576;SDS011;65441;44.748;37.600;2024-01-06T04:47:32;3.25;;;0.63;;
76576;SDS011;65441;44.748;37.600;2024-01-06T04:50:01;3.95;;;0.77;;
76576;SDS011;65441;44.748;37.600;2024-01-06T04:52:29;1.60;;;0.57;;
76576;SDS011;65441;44.748;37.600;2024-01-06T04:54:57;1.88;;;0.50;;
76576;SDS011;65441;44.748;37.600;2024-01-06T04:57:26;2.35;;;0.63;;
76576;SDS011;65441;44.748;37.600;2024-01-06T04:59:55;2.60;;;1.00;;
76576;SDS011;65441;44.748;37.600;2024-01-06T05:02:24;2.08;;;0.70;;
76576;SDS011;65441;44.748;37.600;2024-01-06T05:04:52;2.40;;;0.73;;
76576;SDS011;65441;44.748;37.600;2024-01-06T05:07:20;1.77;;;0.70;;
76576;SDS011;65441;44.748;37.600;2024-01-06T05:09:48;4.47;;;0.55;;
76576;SDS011;65441;44.748;37.600;2024-01-06T05:12:17;1.55;;;0.68;;
76576;SDS011;65441;44.748;37.600;2024-01-06T05:14:45;1.92;;;0.80;;
76576;SDS011;65441;44.748;37.600;2024-01-06T05:17:14;2.17;;;0.57;;
76576;SDS011;65441;44.748;37.600;2024-01-06T05:19:43;3.30;;;0.65;;
76576;SDS011;65441;44.748;37.600;2024-01-06T05:22:11;4.28;;;0.98;;
76576;SDS011;65441;44.748;37.600;2024-01-06T05:24:39;4.88;;;0.70;;
76576;SDS011;65441;44.748;37.600;2024-01-06T05:27:07;5.07;;;1.38;;
76576;SDS011;65441;44.748;37.600;2024-01-06T05:29:36;1.63;;;0.57;;
76576;SDS011;65441;44.748;37.600;2024-01-06T05:32:04;2.40;;;0.85;;
76576;SDS011;65441;44.748;37.600;2024-01-06T05:34:34;1.48;;;0.52;;
76576;SDS011;65441;44.748;37.600;2024-01-06T05:37:03;3.50;;;1.08;;
76576;SDS011;65441;44.748;37.600;2024-01-06T05:39:31;7.35;;;2.10;;
76576;SDS011;65441;44.748;37.600;2024-01-06T05:42:03;8.68;;;2.42;;
76576;SDS011;65441;44.748;37.600;2024-01-06T05:44:33;7.43;;;2.55;;
76576;SDS011;65441;44.748;37.600;2024-01-06T05:47:03;6.40;;;1.88;;
76576;SDS011;65441;44.748;37.600;2024-01-06T05:49:32;24.05;;;6.53;;
76576;SDS011;65441;44.748;37.600;2024-01-06T05:52:02;4.20;;;1.10;;
76576;SDS011;65441;44.748;37.600;2024-01-06T05:54:33;16.88;;;3.75;;
76576;SDS011;65441;44.748;37.600;2024-01-06T05:57:02;7.05;;;2.22;;
76576;SDS011;65441;44.748;37.600;2024-01-06T05:59:32;53.60;;;13.43;;
76576;SDS011;65441;44.748;37.600;2024-01-06T06:02:00;10.10;;;3.40;;
76576;SDS011;65441;44.748;37.600;2024-01-06T06:04:29;17.42;;;4.38;;
76576;SDS011;65441;44.748;37.600;2024-01-06T06:06:58;12.82;;;3.63;;
76576;SDS011;65441;44.748;37.600;2024-01-06T06:09:29;8.63;;;2.47;;
76576;SDS011;65441;44.748;37.600;2024-01-06T06:12:00;10.25;;;1.85;;
76576;SDS011;65441;44.748;37.600;2024-01-06T06:14:28;6.45;;;1.73;;
76576;SDS011;65441;44.748;37.600;2024-01-06T06:16:57;5.88;;;1.38;;
76576;SDS011;65441;44.748;37.600;2024-01-06T06:19:25;4.03;;;1.00;;
76576;SDS011;65441;44.748;37.600;2024-01-06T06:21:53;2.60;;;0.80;;
76576;SDS011;65441;44.748;37.600;2024-01-06T06:24:23;4.10;;;1.10;;
76576;SDS011;65441;44.748;37.600;2024-01-06T06:26:51;2.75;;;1.02;;
76576;SDS011;65441;44.748;37.600;2024-01-06T06:29:23;6.15;;;1.15;;
76576;SDS011;65441;44.748;37.600;2024-01-06T06:31:56;4.93;;;1.08;;
76576;SDS011;65441;44.748;37.600;2024-01-06T06:34:25;7.03;;;1.75;;
76576;SDS011;65441;44.748;37.600;2024-01-06T06:36:53;12.10;;;1.63;;
76576;SDS011;65441;44.748;37.600;2024-01-06T06:39:22;5.32;;;1.10;;
76576;SDS011;65441;44.748;37.600;2024-01-06T06:41:53;3.33;;;0.95;;
76576;SDS011;65441;44.748;37.600;2024-01-06T06:44:21;4.65;;;1.33;;
76576;SDS011;65441;44.748;37.600;2024-01-06T06:46:50;4.63;;;1.52;;
76576;SDS011;65441;44.748;37.600;2024-01-06T06:49:18;4.13;;;1.20;;
76576;SDS011;65441;44.748;37.600;2024-01-06T06:51:46;10.15;;;1.63;;
76576;SDS011;65441;44.748;37.600;2024-01-06T06:54:15;4.45;;;1.40;;
76576;SDS011;65441;44.748;37.600;2024-01-06T06:56:45;4.97;;;1.30;;
76576;SDS011;65441;44.748;37.600;2024-01-06T06:59:14;4.60;;;1.02;;
76576;SDS011;65441;44.748;37.600;2024-01-06T07:01:42;2.22;;;0.70;;
76576;SDS011;65441;44.748;37.600;2024-01-06T07:04:10;6.35;;;0.80;;
76576;SDS011;65441;44.748;37.600;2024-01-06T07:06:38;2.45;;;0.73;;
76576;SDS011;65441;44.748;37.600;2024-01-06T07:09:07;2.97;;;0.70;;
76576;SDS011;65441;44.748;37.600;2024-01-06T07:11:35;4.47;;;0.98;;
76576;SDS011;65441;44.748;37.600;2024-01-06T07:14:05;9.43;;;2.22;;
76576;SDS011;65441;44.748;37.600;2024-01-06T07:16:33;7.82;;;1.75;;
76576;SDS011;65441;44.748;37.600;2024-01-06T07:19:01;6.75;;;1.60;;
76576;SDS011;65441;44.748;37.600;2024-01-06T07:21:29;7.00;;;1.83;;
76576;SDS011;65441;44.748;37.600;2024-01-06T07:23:58;4.47;;;1.58;;
76576;SDS011;65441;44.748;37.600;2024-01-06T07:26:27;5.78;;;0.98;;
76576;SDS011;65441;44.748;37.600;2024-01-06T07:28:55;2.78;;;0.82;;
76576;SDS011;65441;44.748;37.600;2024-01-06T07:31:25;7.70;;;2.00;;
76576;SDS011;65441;44.748;37.600;2024-01-06T07:33:54;7.65;;;1.65;;
76576;SDS011;65441;44.748;37.600;2024-01-06T07:36:22;7.10;;;1.48;;
76576;SDS011;65441;44.748;37.600;2024-01-06T07:38:52;3.88;;;1.02;;
76576;SDS011;65441;44.748;37.600;2024-01-06T07:41:49;2.75;;;0.77;;
76576;SDS011;65441;44.748;37.600;2024-01-06T07:44:19;2.45;;;0.80;;
76576;SDS011;65441;44.748;37.600;2024-01-06T07:46:52;3.95;;;0.90;;
76576;SDS011;65441;44.748;37.600;2024-01-06T07:49:20;5.25;;;1.40;;
76576;SDS011;65441;44.748;37.600;2024-01-06T07:51:49;5.65;;;1.52;;
76576;SDS011;65441;44.748;37.600;2024-01-06T07:54:17;2.80;;;0.77;;
76576;SDS011;65441;44.748;37.600;2024-01-06T07:56:46;3.35;;;0.95;;
76576;SDS011;65441;44.748;37.600;2024-01-06T07:59:14;6.85;;;1.75;;
76576;SDS011;65441;44.748;37.600;2024-01-06T08:01:43;5.22;;;1.55;;
76576;SDS011;65441;44.748;37.600;2024-01-06T08:04:13;6.03;;;1.55;;
76576;SDS011;65441;44.748;37.600;2024-01-06T08:06:42;6.07;;;1.42;;
76576;SDS011;65441;44.748;37.600;2024-01-06T08:09:10;4.47;;;1.20;;
76576;SDS011;65441;44.748;37.600;2024-01-06T08:11:39;3.40;;;0.93;;
76576;SDS011;65441;44.748;37.600;2024-01-06T08:14:09;4.45;;;0.88;;
76576;SDS011;65441;44.748;37.600;2024-01-06T08:16:37;2.33;;;0.60;;
76576;SDS011;65441;44.748;37.600;2024-01-06T08:19:06;5.22;;;0.90;;
76576;SDS011;65441;44.748;37.600;2024-01-06T08:21:36;2.38;;;0.82;;
76576;SDS011;65441;44.748;37.600;2024-01-06T08:24:05;5.75;;;1.10;;
76576;SDS011;65441;44.748;37.600;2024-01-06T08:26:33;2.15;;;0.73;;
76576;SDS011;65441;44.748;37.600;2024-01-06T08:29:02;1.63;;;0.65;;
76576;SDS011;65441;44.748;37.600;2024-01-06T08:31:30;4.28;;;0.98;;
76576;SDS011;65441;44.748;37.600;2024-01-06T08:33:59;7.65;;;1.58;;
76576;SDS011;65441;44.748;37.600;2024-01-06T08:36:27;7.65;;;1.98;;
76576;SDS011;65441;44.748;37.600;2024-01-06T08:38:57;6.03;;;1.10;;
76576;SDS011;65441;44.748;37.600;2024-01-06T08:41:25;2.45;;;0.88;;
76576;SDS011;65441;44.748;37.600;2024-01-06T08:43:53;7.45;;;2.38;;
76576;SDS011;65441;44.748;37.600;2024-01-06T08:46:21;4.55;;;1.02;;
76576;SDS011;65441;44.748;37.600;2024-01-06T08:48:50;4.55;;;1.00;;
76576;SDS011;65441;44.748;37.600;2024-01-06T08:51:18;2.33;;;0.90;;
76576;SDS011;65441;44.748;37.600;2024-01-06T08:53:47;1.73;;;0.63;;
76576;SDS011;65441;44.748;37.600;2024-01-06T08:56:17;3.97;;;1.02;;
76576;SDS011;65441;44.748;37.600;2024-01-06T08:58:45;3.05;;;0.68;;
76576;SDS011;65441;44.748;37.600;2024-01-06T09:01:14;4.93;;;1.42;;
76576;SDS011;65441;44.748;37.600;2024-01-06T09:03:42;4.88;;;1.40;;
76576;SDS011;65441;44.748;37.600;2024-01-06T09:06:10;4.38;;;0.85;;
76576;SDS011;65441;44.748;37.600;2024-01-06T09:08:40;2.35;;;0.60;;
76576;SDS011;65441;44.748;37.600;2024-01-06T09:11:08;2.25;;;0.82;;
76576;SDS011;65441;44.748;37.600;2024-01-06T09:13:38;2.42;;;0.77;;
76576;SDS011;65441;44.748;37.600;2024-01-06T09:16:07;3.72;;;1.00;;
76576;SDS011;65441;44.748;37.600;2024-01-06T09:18:36;4.85;;;1.30;;
76576;SDS011;65441;44.748;37.600;2024-01-06T09:21:05;3.30;;;1.23;;
76576;SDS011;65441;44.748;37.600;2024-01-06T09:23:34;2.40;;;0.88;;
76576;SDS011;65441;44.748;37.600;2024-01-06T09:26:02;2.78;;;0.93;;
76576;SDS011;65441;44.748;37.600;2024-01-06T09:28:31;2.97;;;1.00;;
76576;SDS011;65441;44.748;37.600;2024-01-06T09:31:01;3.05;;;0.88;;
76576;SDS011;65441;44.748;37.600;2024-01-06T09:33:30;1.63;;;0.50;;
76576;SDS011;65441;44.748;37.600;2024-01-06T09:36:00;3.08;;;0.60;;
76576;SDS011;65441;44.748;37.600;2024-01-06T09:38:28;2.30;;;0.65;;
76576;SDS011;65441;44.748;37.600;2024-01-06T09:40:56;2.47;;;0.68;;
76576;SDS011;65441;44.748;37.600;2024-01-06T09:43:26;2.03;;;0.70;;
76576;SDS011;65441;44.748;37.600;2024-01-06T09:45:58;4.68;;;0.80;;
76576;SDS011;65441;44.748;37.600;2024-01-06T09:48:34;3.20;;;0.90;;
76576;SDS011;65441;44.748;37.600;2024-01-06T09:51:09;4.05;;;1.00;;
76576;SDS011;65441;44.748;37.600;2024-01-06T09:53:43;1.33;;;0.55;;
76576;SDS011;65441;44.748;37.600;2024-01-06T09:56:17;1.88;;;0.52;;
76576;SDS011;65441;44.748;37.600;2024-01-06T09:58:45;4.22;;;0.90;;
76576;SDS011;65441;44.748;37.600;2024-01-06T10:01:15;10.20;;;1.35;;
76576;SDS011;65441;44.748;37.600;2024-01-06T10:03:46;3.65;;;1.15;;
76576;SDS011;65441;44.748;37.600;2024-01-06T10:06:15;3.13;;;0.93;;
76576;SDS011;65441;44.748;37.600;2024-01-06T10:08:43;4.07;;;0.75;;
76576;SDS011;65441;44.748;37.600;2024-01-06T10:11:12;4.57;;;0.90;;
76576;SDS011;65441;44.748;37.600;2024-01-06T10:13:41;1.83;;;0.77;;
76576;SDS011;65441;44.748;37.600;2024-01-06T10:16:09;3.38;;;0.82;;
76576;SDS011;65441;44.748;37.600;2024-01-06T10:18:41;2.42;;;0.70;;
76576;SDS011;65441;44.748;37.600;2024-01-06T10:21:11;3.38;;;0.70;;
76576;SDS011;65441;44.748;37.600;2024-01-06T10:23:43;3.28;;;0.75;;
76576;SDS011;65441;44.748;37.600;2024-01-06T10:26:14;1.95;;;0.63;;
76576;SDS011;65441;44.748;37.600;2024-01-06T10:28:43;5.35;;;1.02;;
76576;SDS011;65441;44.748;37.600;2024-01-06T10:31:12;8.43;;;1.00;;
76576;SDS011;65441;44.748;37.600;2024-01-06T10:33:42;2.45;;;0.63;;
76576;SDS011;65441;44.748;37.600;2024-01-06T10:36:11;2.72;;;0.75;;
76576;SDS011;65441;44.748;37.600;2024-01-06T10:38:40;3.13;;;0.70;;
76576;SDS011;65441;44.748;37.600;2024-01-06T10:41:09;1.92;;;0.60;;
76576;SDS011;65441;44.748;37.600;2024-01-06T10:43:39;2.47;;;0.57;;
76576;SDS011;65441;44.748;37.600;2024-01-06T10:46:10;3.17;;;0.70;;
76576;SDS011;65441;44.748;37.600;2024-01-06T10:48:38;2.35;;;0.80;;
76576;SDS011;65441;44.748;37.600;2024-01-06T10:51:10;1.50;;;0.47;;
76576;SDS011;65441;44.748;37.600;2024-01-06T10:53:40;47.65;;;17.45;;
76576;SDS011;65441;44.748;37.600;2024-01-06T10:56:09;51.13;;;19.63;;
76576;SDS011;65441;44.748;37.600;2024-01-06T10:58:38;51.85;;;17.25;;
76576;SDS011;65441;44.748;37.600;2024-01-06T11:01:12;15.40;;;6.55;;
76576;SDS011;65441;44.748;37.600;2024-01-06T11:03:40;8.80;;;4.28;;
76576;SDS011;65441;44.748;37.600;2024-01-06T11:06:11;18.67;;;8.20;;
76576;SDS011;65441;44.748;37.600;2024-01-06T11:08:40;14.55;;;7.82;;
76576;SDS011;65441;44.748;37.600;2024-01-06T11:11:24;8.13;;;2.05;;
76576;SDS011;65441;44.748;37.600;2024-01-06T11:13:54;26.50;;;14.95;;
76576;SDS011;65441;44.748;37.600;2024-01-06T11:16:46;8.00;;;4.68;;
76576;SDS011;65441;44.748;37.600;2024-01-06T11:22:19;6.22;;;2.80;;
76576;SDS011;65441;44.748;37.600;2024-01-06T11:24:49;4.90;;;2.40;;
76576;SDS011;65441;44.748;37.600;2024-01-06T11:27:20;3.85;;;0.90;;
76576;SDS011;65441;44.748;37.600;2024-01-06T11:29:52;2.50;;;0.50;;
76576;SDS011;65441;44.748;37.600;2024-01-06T11:32:26;4.25;;;0.80;;
76576;SDS011;65441;44.748;37.600;2024-01-06T11:34:56;3.58;;;0.90;;
76576;SDS011;65441;44.748;37.600;2024-01-06T11:37:36;3.05;;;0.40;;
76576;SDS011;65441;44.748;37.600;2024-01-06T11:40:22;5.75;;;1.00;;
76576;SDS011;65441;44.748;37.600;2024-01-06T11:42:58;5.00;;;1.38;;
76576;SDS011;65441;44.748;37.600;2024-01-06T11:45:28;2.95;;;0.80;;
76576;SDS011;65441;44.748;37.600;2024-01-06T11:47:59;4.78;;;1.10;;
76576;SDS011;65441;44.748;37.600;2024-01-06T11:50:29;5.43;;;0.63;;
76576;SDS011;65441;44.748;37.600;2024-01-06T11:53:01;6.38;;;1.70;;
76576;SDS011;65441;44.748;37.600;2024-01-06T11:55:29;5.30;;;1.17;;
76576;SDS011;65441;44.748;37.600;2024-01-06T11:57:59;9.55;;;3.03;;
76576;SDS011;65441;44.748;37.600;2024-01-06T12:00:29;10.75;;;3.70;;
76576;SDS011;65441;44.748;37.600;2024-01-06T12:02:58;8.50;;;3.00;;
76576;SDS011;65441;44.748;37.600;2024-01-06T12:05:27;6.07;;;1.60;;
76576;SDS011;65441;44.748;37.600;2024-01-06T12:07:57;12.77;;;3.55;;
76576;SDS011;65441;44.748;37.600;2024-01-06T12:11:04;10.10;;;2.38;;
76576;SDS011;65441;44.748;37.600;2024-01-06T12:13:33;9.02;;;1.30;;
76576;SDS011;65441;44.748;37.600;2024-01-06T12:16:03;5.15;;;0.95;;
76576;SDS011;65441;44.748;37.600;2024-01-06T12:18:32;6.22;;;1.42;;
76576;SDS011;65441;44.748;37.600;2024-01-06T12:21:01;9.98;;;2.00;;
76576;SDS011;65441;44.748;37.600;2024-01-06T12:23:31;5.95;;;1.60;;
76576;SDS011;65441;44.748;37.600;2024-01-06T12:26:00;7.53;;;1.52;;
76576;SDS011;65441;44.748;37.600;2024-01-06T12:28:29;9.32;;;2.97;;
76576;SDS011;65441;44.748;37.600;2024-01-06T12:30:57;10.18;;;2.60;;
76576;SDS011;65441;44.748;37.600;2024-01-06T12:33:25;7.20;;;1.85;;
76576;SDS011;65441;44.748;37.600;2024-01-06T12:35:54;14.82;;;3.20;;
76576;SDS011;65441;44.748;37.600;2024-01-06T12:38:22;12.98;;;2.47;;
76576;SDS011;65441;44.748;37.600;2024-01-06T12:40:56;8.48;;;2.38;;
76576;SDS011;65441;44.748;37.600;2024-01-06T12:43:25;8.70;;;1.80;;
76576;SDS011;65441;44.748;37.600;2024-01-06T12:45:54;11.90;;;2.92;;
76576;SDS011;65441;44.748;37.600;2024-01-06T12:48:24;13.93;;;3.40;;
76576;SDS011;65441;44.748;37.600;2024-01-06T12:50:52;9.73;;;2.40;;
76576;SDS011;65441;44.748;37.600;2024-01-06T12:53:21;7.60;;;1.08;;
76576;SDS011;65441;44.748;37.600;2024-01-06T12:55:50;4.35;;;1.17;;
76576;SDS011;65441;44.748;37.600;2024-01-06T12:58:20;17.42;;;4.18;;
76576;SDS011;65441;44.748;37.600;2024-01-06T13:00:50;15.75;;;4.20;;
76576;SDS011;65441;44.748;37.600;2024-01-06T13:03:18;11.48;;;2.70;;
76576;SDS011;65441;44.748;37.600;2024-01-06T13:05:47;10.82;;;2.60;;
76576;SDS011;65441;44.748;37.600;2024-01-06T13:08:17;11.45;;;3.03;;
76576;SDS011;65441;44.748;37.600;2024-01-06T13:10:45;13.00;;;1.60;;
76576;SDS011;65441;44.748;37.600;2024-01-06T13:13:14;8.68;;;1.70;;
76576;SDS011;65441;44.748;37.600;2024-01-06T13:15:44;10.32;;;2.42;;
76576;SDS011;65441;44.748;37.600;2024-01-06T13:18:13;6.05;;;1.80;;
76576;SDS011;65441;44.748;37.600;2024-01-06T13:20:43;6.85;;;2.15;;
76576;SDS011;65441;44.748;37.600;2024-01-06T13:23:11;10.30;;;1.75;;
76576;SDS011;65441;44.748;37.600;2024-01-06T13:25:40;5.10;;;1.38;;
76576;SDS011;65441;44.748;37.600;2024-01-06T13:28:08;7.38;;;1.75;;
76576;SDS011;65441;44.748;37.600;2024-01-06T13:30:36;7.60;;;1.73;;
76576;SDS011;65441;44.748;37.600;2024-01-06T13:33:07;7.88;;;1.13;;
76576;SDS011;65441;44.748;37.600;2024-01-06T13:35:36;11.23;;;3.10;;
76576;SDS011;65441;44.748;37.600;2024-01-06T13:38:06;13.15;;;2.95;;
76576;SDS011;65441;44.748;37.600;2024-01-06T13:40:35;9.13;;;1.48;;
76576;SDS011;65441;44.748;37.600;2024-01-06T13:43:03;4.95;;;1.45;;
76576;SDS011;65441;44.748;37.600;2024-01-06T13:45:35;3.47;;;0.80;;
76576;SDS011;65441;44.748;37.600;2024-01-06T13:48:03;7.28;;;1.67;;
76576;SDS011;65441;44.748;37.600;2024-01-06T13:50:34;5.07;;;1.40;;
76576;SDS011;65441;44.748;37.600;2024-01-06T13:53:02;7.80;;;1.20;;
76576;SDS011;65441;44.748;37.600;2024-01-06T13:55:32;7.88;;;1.70;;
76576;SDS011;65441;44.748;37.600;2024-01-06T13:58:01;4.95;;;1.30;;
76576;SDS011;65441;44.748;37.600;2024-01-06T14:00:30;8.90;;;1.20;;
76576;SDS011;65441;44.748;37.600;2024-01-06T14:02:58;7.45;;;1.38;;
76576;SDS011;65441;44.748;37.600;2024-01-06T14:05:27;6.25;;;1.55;;
76576;SDS011;65441;44.748;37.600;2024-01-06T14:07:57;8.73;;;1.38;;
76576;SDS011;65441;44.748;37.600;2024-01-06T14:10:25;6.75;;;1.48;;
76576;SDS011;65441;44.748;37.600;2024-01-06T14:12:53;8.50;;;1.73;;
76576;SDS011;65441;44.748;37.600;2024-01-06T14:15:22;6.20;;;1.50;;
76576;SDS011;65441;44.748;37.600;2024-01-06T14:17:52;11.13;;;2.42;;
76576;SDS011;65441;44.748;37.600;2024-01-06T14:20:20;14.93;;;2.55;;
76576;SDS011;65441;44.748;37.600;2024-01-06T14:22:48;11.27;;;2.30;;
76576;SDS011;65441;44.748;37.600;2024-01-06T14:25:19;13.15;;;2.50;;
76576;SDS011;65441;44.748;37.600;2024-01-06T14:27:47;10.30;;;1.85;;
76576;SDS011;65441;44.748;37.600;2024-01-06T14:30:16;5.05;;;1.27;;
76576;SDS011;65441;44.748;37.600;2024-01-06T14:32:46;7.85;;;1.88;;
76576;SDS011;65441;44.748;37.600;2024-01-06T14:35:14;2.38;;;0.82;;
76576;SDS011;65441;44.748;37.600;2024-01-06T14:37:42;8.07;;;1.80;;
76576;SDS011;65441;44.748;37.600;2024-01-06T14:40:12;7.75;;;1.65;;
76576;SDS011;65441;44.748;37.600;2024-01-06T14:42:41;10.30;;;1.23;;
76576;SDS011;65441;44.748;37.600;2024-01-06T14:45:12;5.93;;;1.15;;
76576;SDS011;65441;44.748;37.600;2024-01-06T14:47:40;3.03;;;0.77;;
76576;SDS011;65441;44.748;37.600;2024-01-06T14:50:09;8.60;;;1.75;;